Terminal Aerodrome Forecast
Issued by NWS Grand Forks, ND

Home | Current Version | Previous Version | Graphics & Text | Print | Product List | Glossary On
Versions: 1 2 3 4 5 6 7 8 9 10 11 12 13 14 15 16 17 18 19
000
FTUS43 KFGF 281600 AAB
TAFGFK
TAF AMD
KGFK 281652Z 2817/2912 35014G20KT P6SM BKN040
      TEMPO 2817/2818 BKN012
     FM281800 36015G22KT P6SM -RA OVC012
     FM282100 02015KT P6SM VCSH OVC015=

USA.gov is the U.S. government's official web portal to all federal, state and local government web resources and services.